Time;durP1;ratioP1;P1;durP2;ratioP2;P2;SDS_P1;SDS_P2;PMS_P1;PMS_P2;Temp;Humidity;BMP_temperature;BMP_pressure;BME280_temperature;BME280_humidity;BME280_pressure;Samples;Min_cycle;Max_cycle;Signal;HPM_P1;HPM_P2
2021/08/03 00:01:11;;;;;;;7.72;5.60;;;;;;;13.18;74.05;100201.84;5031993;28;20398;-65
2021/08/03 00:03:45;;;;;;;8.38;5.90;;;;;;;13.25;73.09;100190.13;5031806;28;20057;-65
2021/08/03 00:06:17;;;;;;;6.45;5.10;;;;;;;13.24;73.06;100194.06;5031605;28;20058;-65
2021/08/03 00:08:49;;;;;;;7.03;5.88;;;;;;;13.16;73.20;100183.75;5031254;28;20060;-65
2021/08/03 00:11:17;;;;;;;7.25;5.70;;;;;;;13.14;72.66;100183.28;5032060;28;20056;-65
2021/08/03 00:13:45;;;;;;;9.73;5.80;;;;;;;13.15;72.64;100182.16;5031974;28;20054;-65
2021/08/03 00:16:12;;;;;;;6.78;6.07;;;;;;;13.07;73.00;100189.41;5031809;28;20049;-65
2021/08/03 00:18:43;;;;;;;8.50;6.07;;;;;;;13.02;73.21;100183.19;5031434;28;20390;-65
2021/08/03 00:21:12;;;;;;;7.63;6.28;;;;;;;12.91;73.08;100183.56;5031770;28;20406;-65
2021/08/03 00:23:42;;;;;;;10.87;6.80;;;;;;;12.84;73.82;100191.69;5031507;28;20049;-65
2021/08/03 00:26:12;;;;;;;8.90;6.85;;;;;;;12.82;73.81;100191.19;5031327;28;20464;-65
2021/08/03 00:28:40;;;;;;;8.70;6.75;;;;;;;12.72;74.23;100199.97;5034185;28;20057;-65
2021/08/03 00:31:12;;;;;;;8.50;6.38;;;;;;;12.77;74.36;100191.41;5035155;28;20080;-65
2021/08/03 00:33:40;;;;;;;8.05;6.03;;;;;;;12.79;73.83;100194.69;5035085;28;20058;-65
2021/08/03 00:36:08;;;;;;;9.57;5.93;;;;;;;12.78;74.13;100193.03;5035043;28;20064;-65
2021/08/03 00:38:35;;;;;;;8.45;6.15;;;;;;;12.79;73.81;100191.88;5034982;28;20065;-65
2021/08/03 00:41:05;;;;;;;7.60;5.95;;;;;;;12.76;74.02;100189.75;5034833;28;20049;-65
2021/08/03 00:43:33;;;;;;;9.10;5.90;;;;;;;12.73;73.61;100184.84;5035103;28;20053;-65
2021/08/03 00:46:00;;;;;;;8.60;6.07;;;;;;;12.74;73.82;100178.91;5034731;28;20065;-65
2021/08/03 00:48:27;;;;;;;7.78;6.10;;;;;;;12.73;74.08;100190.44;5035074;28;20056;-65
2021/08/03 00:50:55;;;;;;;9.10;6.05;;;;;;;12.73;73.54;100180.06;5034586;28;20072;-65
2021/08/03 00:53:24;;;;;;;9.45;5.97;;;;;;;12.71;74.04;100184.38;5034951;28;20514;-65
2021/08/03 00:55:52;;;;;;;8.73;5.80;;;;;;;12.71;73.95;100187.97;5034819;28;20068;-65
2021/08/03 00:58:22;;;;;;;7.30;5.93;;;;;;;12.65;73.67;100189.31;5034803;28;20049;-66
2021/08/03 01:00:53;;;;;;;8.10;6.45;;;;;;;12.67;73.88;100186.19;5035145;28;20060;-65
2021/08/03 01:03:20;;;;;;;8.30;6.10;;;;;;;12.69;73.94;100186.66;5034655;28;20049;-65
2021/08/03 01:06:00;;;;;;;10.68;6.30;;;;;;;12.68;73.69;100179.44;5034537;28;20415;-65
2021/08/03 01:08:45;;;;;;;8.15;6.00;;;;;;;12.66;73.43;100178.94;5034614;28;20360;-65
2021/08/03 01:11:18;;;;;;;9.57;6.32;;;;;;;12.64;73.52;100187.69;5034541;28;20064;-65
2021/08/03 01:13:56;;;;;;;8.20;5.68;;;;;;;12.64;73.52;100186.84;5034446;28;20506;-65
2021/08/03 01:16:28;;;;;;;7.63;6.00;;;;;;;12.60;73.61;100181.13;5034570;28;20411;-65
2021/08/03 01:19:05;;;;;;;7.47;5.45;;;;;;;12.55;73.46;100182.09;5034280;28;20049;-65
2021/08/03 01:21:51;;;;;;;6.80;5.57;;;;;;;12.54;73.33;100174.91;5034559;28;20483;-65
2021/08/03 01:25:06;;;;;;;8.95;5.57;;;;;;;12.53;73.46;100187.22;5034141;28;20061;-65
2021/08/03 01:27:49;;;;;;;7.13;5.68;;;;;;;12.44;73.42;100180.03;5034417;28;20057;-65
2021/08/03 01:30:19;;;;;;;8.82;6.10;;;;;;;12.47;74.02;100173.75;5034260;28;20470;-65
2021/08/03 01:32:47;;;;;;;8.65;5.72;;;;;;;12.46;73.70;100175.75;5033949;28;20049;-65
2021/08/03 01:35:16;;;;;;;7.60;5.88;;;;;;;12.47;73.79;100182.97;5034143;28;20410;-65
2021/08/03 01:37:47;;;;;;;9.95;5.80;;;;;;;12.48;73.67;100181.81;5033690;28;20388;-65
2021/08/03 01:40:15;;;;;;;9.25;5.85;;;;;;;12.44;73.73;100183.63;5032860;28;20495;-65
2021/08/03 01:42:45;;;;;;;7.63;5.97;;;;;;;12.47;73.43;100169.00;5033650;28;20049;-65
2021/08/03 01:45:14;;;;;;;6.70;5.63;;;;;;;12.42;73.57;100163.59;5033964;28;20056;-65
2021/08/03 01:47:43;;;;;;;11.52;6.32;;;;;;;12.42;73.31;100173.97;5033530;28;20053;-65
2021/08/03 01:50:13;;;;;;;10.93;5.90;;;;;;;12.38;73.38;100168.22;5033994;28;20049;-65
2021/08/03 01:52:42;;;;;;;8.82;5.97;;;;;;;12.32;73.86;100175.94;5033631;28;20394;-65
2021/08/03 01:55:11;;;;;;;9.73;5.97;;;;;;;12.30;73.89;100172.66;5033798;28;20062;-65
2021/08/03 01:57:42;;;;;;;8.32;6.35;;;;;;;12.30;74.05;100172.66;5033675;28;20054;-65
2021/08/03 02:00:11;;;;;;;7.45;5.55;;;;;;;12.27;73.48;100170.56;5033671;28;20056;-65
2021/08/03 02:02:40;;;;;;;8.70;6.18;;;;;;;12.28;73.43;100163.00;5033509;28;20053;-65
2021/08/03 02:05:10;;;;;;;7.57;6.05;;;;;;;12.30;73.15;100171.84;5033504;28;20052;-65
2021/08/03 02:07:42;;;;;;;10.52;5.90;;;;;;;12.25;73.55;100158.09;5033139;28;20402;-65
2021/08/03 02:10:10;;;;;;;9.23;6.30;;;;;;;12.29;73.73;100173.84;5033223;28;20533;-65
2021/08/03 02:12:38;;;;;;;8.48;5.85;;;;;;;12.26;73.55;100162.50;5033009;28;20080;-65
2021/08/03 02:15:06;;;;;;;10.27;6.75;;;;;;;12.25;73.54;100164.47;5033513;28;20049;-65
2021/08/03 02:17:37;;;;;;;9.15;6.32;;;;;;;12.24;73.51;100174.03;5033441;28;20053;-65
2021/08/03 02:20:10;;;;;;;9.10;6.45;;;;;;;12.27;73.41;100164.16;5034454;28;20060;-65
2021/08/03 02:22:39;;;;;;;8.77;5.85;;;;;;;12.28;73.55;100160.19;5033458;28;20080;-65
2021/08/03 02:25:09;;;;;;;7.88;6.00;;;;;;;12.27;73.73;100161.38;5033134;28;20426;-65
2021/08/03 02:27:37;;;;;;;8.10;5.93;;;;;;;12.27;73.51;100169.75;5032893;28;20061;-65
2021/08/03 02:30:06;;;;;;;8.40;6.10;;;;;;;12.27;73.47;100162.19;5033190;28;20053;-65
2021/08/03 02:32:39;;;;;;;7.80;5.70;;;;;;;12.26;73.48;100160.53;5033249;28;20052;-65
2021/08/03 02:35:11;;;;;;;9.32;5.80;;;;;;;12.22;73.23;100161.53;5033104;28;20497;-65
2021/08/03 02:37:45;;;;;;;7.93;6.07;;;;;;;12.23;73.42;100160.38;5033259;28;20060;-65
2021/08/03 02:40:13;;;;;;;6.40;5.18;;;;;;;12.23;73.64;100154.81;5032722;28;20049;-65
2021/08/03 02:42:43;;;;;;;7.38;5.18;;;;;;;12.25;73.66;100158.09;5032759;28;20049;-65
2021/08/03 02:45:12;;;;;;;;;;;;;;;12.21;73.36;100160.72;5033078;28;20045;-65
2021/08/03 02:47:47;;;;;;;7.70;5.28;;;;;;;12.26;73.56;100154.94;5042642;28;20016;-65
2021/08/03 02:50:16;;;;;;;6.20;4.97;;;;;;;12.30;73.49;100155.09;5052294;28;20045;-65
2021/08/03 02:52:47;;;;;;;7.82;4.90;;;;;;;12.34;73.34;100164.44;5052210;28;20080;-65
2021/08/03 02:55:19;;;;;;;7.78;4.50;;;;;;;12.32;72.75;100153.59;5052658;28;20416;-65
2021/08/03 02:57:54;;;;;;;7.93;5.18;;;;;;;12.34;72.48;100159.66;5052185;28;20375;-65
2021/08/03 03:00:22;;;;;;;7.45;4.63;;;;;;;12.35;72.46;100157.72;5052327;28;20049;-65
2021/08/03 03:02:51;;;;;;;5.72;4.70;;;;;;;12.39;72.38;100156.72;5051010;28;20057;-65
2021/08/03 03:05:25;;;;;;;9.60;5.00;;;;;;;12.41;72.48;100161.97;5052560;28;20052;-65
2021/08/03 03:08:00;;;;;;;7.47;4.50;;;;;;;12.42;72.37;100152.44;5051813;28;20053;-65
2021/08/03 03:10:30;;;;;;;5.85;4.32;;;;;;;12.43;72.53;100148.50;5052149;28;20045;-65
2021/08/03 03:13:00;;;;;;;8.77;4.88;;;;;;;12.49;72.11;100152.72;5052177;28;20053;-65
2021/08/03 03:15:30;;;;;;;7.60;5.15;;;;;;;12.51;71.81;100153.19;5052417;28;20049;-65
2021/08/03 03:17:58;;;;;;;6.65;4.55;;;;;;;12.54;72.06;100148.94;5052087;28;20057;-65
2021/08/03 03:20:26;;;;;;;8.40;5.28;;;;;;;12.58;71.86;100155.50;5052246;28;20053;-65
2021/08/03 03:22:56;;;;;;;8.15;5.35;;;;;;;12.54;72.11;100155.34;5051855;28;20052;-65
2021/08/03 03:25:25;;;;;;;6.38;5.40;;;;;;;12.56;72.09;100152.22;5051859;28;20417;-65
2021/08/03 03:27:56;;;;;;;7.40;5.30;;;;;;;12.45;72.46;100153.72;5051854;28;20064;-65
2021/08/03 03:30:25;;;;;;;5.75;4.93;;;;;;;12.58;72.71;100149.91;5051803;28;20055;-65
2021/08/03 03:32:53;;;;;;;7.60;5.95;;;;;;;12.67;72.33;100141.47;5052120;28;20049;-65
2021/08/03 03:35:22;;;;;;;9.45;4.93;;;;;;;12.71;72.12;100142.44;5052163;28;20053;-65
2021/08/03 03:37:52;;;;;;;7.22;5.10;;;;;;;12.63;72.25;100148.91;5012379;28;20488;-65
2021/08/03 03:40:22;;;;;;;6.43;5.28;;;;;;;12.70;72.32;100144.41;5012266;28;20049;-65
2021/08/03 03:42:53;;;;;;;11.75;5.70;;;;;;;12.82;71.93;100142.88;5011892;28;20490;-65
2021/08/03 03:45:20;;;;;;;6.88;4.65;;;;;;;12.88;71.63;100141.53;5012722;28;20053;-65
2021/08/03 03:47:54;;;;;;;7.68;4.68;;;;;;;12.94;71.61;100134.59;5012379;28;20391;-65
2021/08/03 03:50:27;;;;;;;6.38;4.50;;;;;;;12.98;71.53;100141.13;5012334;28;20053;-65
2021/08/03 03:52:58;;;;;;;5.30;4.18;;;;;;;13.05;70.77;100135.00;5011742;28;20065;-65
2021/08/03 03:55:29;;;;;;;5.53;3.90;;;;;;;13.10;70.76;100135.63;5012556;28;20053;-65
2021/08/03 03:57:57;;;;;;;9.35;4.22;;;;;;;13.16;70.59;100141.81;5012348;28;20053;-65
2021/08/03 04:00:25;;;;;;;5.95;3.85;;;;;;;13.21;70.81;100150.03;5012621;28;20050;-65
2021/08/03 04:02:54;;;;;;;5.47;4.05;;;;;;;13.28;71.12;100144.69;5013226;28;20061;-65
2021/08/03 04:05:22;;;;;;;7.43;4.30;;;;;;;13.38;70.80;100140.72;5016749;28;20050;-65
2021/08/03 04:07:52;;;;;;;6.18;4.20;;;;;;;13.48;70.96;100131.06;4998249;28;20061;-65
2021/08/03 04:10:33;;;;;;;5.75;4.10;;;;;;;13.59;70.19;100130.31;4996768;28;20054;-65
2021/08/03 04:13:00;;;;;;;5.93;4.25;;;;;;;13.64;69.96;100131.25;4996505;28;20459;-65
2021/08/03 04:15:28;;;;;;;7.03;4.30;;;;;;;13.59;70.09;100126.69;4996655;28;20054;-65
2021/08/03 04:17:55;;;;;;;7.93;5.57;;;;;;;13.71;69.94;100123.13;4996151;28;20349;-65
2021/08/03 04:20:23;;;;;;;6.60;5.70;;;;;;;13.69;70.22;100126.28;4996484;28;20046;-65
2021/08/03 04:22:50;;;;;;;7.00;5.65;;;;;;;13.74;70.42;100128.84;4995955;28;20483;-65
2021/08/03 04:25:18;;;;;;;10.43;5.63;;;;;;;13.83;69.95;100133.53;4995970;28;20058;-65
2021/08/03 04:27:47;;;;;;;5.65;4.13;;;;;;;13.89;69.63;100129.38;4996071;28;20510;-65
2021/08/03 04:30:16;;;;;;;7.20;3.88;;;;;;;13.90;70.05;100129.03;4996004;28;20403;-65
2021/08/03 04:32:44;;;;;;;4.88;3.65;;;;;;;13.91;70.22;100135.44;4996265;28;20057;-65
2021/08/03 04:35:12;;;;;;;5.65;3.53;;;;;;;13.91;69.80;100125.06;4995925;28;20062;-65
2021/08/03 04:37:41;;;;;;;5.22;3.50;;;;;;;13.94;69.90;100129.97;5033376;28;20060;-65
2021/08/03 04:40:10;;;;;;;6.03;4.10;;;;;;;13.98;69.83;100121.69;5034677;28;20410;-65
2021/08/03 04:42:38;;;;;;;8.18;4.47;;;;;;;14.00;69.81;100125.78;5035296;28;20057;-65
2021/08/03 04:45:08;;;;;;;5.20;3.90;;;;;;;14.08;70.03;100131.63;5035252;28;20057;-65
2021/08/03 04:47:42;;;;;;;3.92;3.50;;;;;;;14.14;70.24;100124.66;5035123;28;20117;-65
2021/08/03 04:50:11;;;;;;;4.20;3.50;;;;;;;14.09;69.52;100120.09;5035022;28;20045;-65
2021/08/03 04:52:39;;;;;;;5.22;3.97;;;;;;;14.14;69.13;100119.88;5035063;28;20053;-65
2021/08/03 04:55:07;;;;;;;5.35;3.75;;;;;;;14.10;69.57;100127.31;5034791;28;20479;-65
2021/08/03 04:57:35;;;;;;;6.75;4.15;;;;;;;14.16;69.80;100122.31;5035083;28;20053;-65
2021/08/03 05:00:04;;;;;;;6.78;4.65;;;;;;;14.18;69.84;100123.59;5034562;28;20057;-65
2021/08/03 05:02:33;;;;;;;5.20;4.07;;;;;;;14.24;69.02;100123.38;5034725;28;20434;-65
2021/08/03 05:05:04;;;;;;;6.07;5.32;;;;;;;14.27;69.88;100120.69;5034404;28;20414;-65
2021/08/03 05:07:33;;;;;;;5.78;4.70;;;;;;;14.35;68.98;100116.16;5034881;28;20057;-65
2021/08/03 05:10:01;;;;;;;;;;;;;;;14.43;68.74;100112.44;5035074;28;20054;-65
2021/08/03 05:12:30;;;;;;;8.80;5.78;;;;;;;14.50;69.20;100115.47;5034618;28;19921;-65
2021/08/03 05:15:00;;;;;;;7.78;5.60;;;;;;;14.56;68.98;100110.47;5034243;28;20402;-65
2021/08/03 05:17:29;;;;;;;9.88;6.63;;;;;;;14.61;69.13;100105.47;5034335;28;20068;-65
2021/08/03 05:19:58;;;;;;;9.27;6.45;;;;;;;14.70;69.25;100112.91;5034527;28;20058;-65
2021/08/03 05:22:26;;;;;;;9.23;6.93;;;;;;;14.73;68.85;100107.44;5034119;28;20125;-65
2021/08/03 05:24:55;;;;;;;9.45;6.53;;;;;;;14.73;69.30;100110.22;5034307;28;20061;-65
2021/08/03 05:27:22;;;;;;;9.15;6.30;;;;;;;14.86;69.01;100105.44;5034027;28;20064;-65
2021/08/03 05:29:49;;;;;;;6.38;4.90;;;;;;;15.00;68.51;100110.69;5034111;28;20064;-65
2021/08/03 05:32:17;;;;;;;5.65;4.53;;;;;;;15.06;68.21;100102.84;5033857;28;20049;-65
2021/08/03 05:34:44;;;;;;;6.05;5.40;;;;;;;15.09;68.00;100102.94;5033818;28;20053;-65
2021/08/03 05:37:13;;;;;;;7.70;5.40;;;;;;;15.16;68.46;100113.56;5033472;28;20061;-65
2021/08/03 05:39:40;;;;;;;7.07;5.40;;;;;;;15.22;68.02;100106.53;5034097;28;20057;-65
2021/08/03 05:42:08;;;;;;;7.35;5.90;;;;;;;15.28;67.57;100107.09;5033662;28;20077;-65
2021/08/03 05:44:36;;;;;;;7.45;5.53;;;;;;;15.36;67.41;100109.75;5034049;28;20056;-65
2021/08/03 05:47:03;;;;;;;7.55;5.63;;;;;;;15.43;67.04;100095.94;5034046;28;20056;-65
2021/08/03 05:49:31;;;;;;;8.35;5.65;;;;;;;15.43;66.71;100090.34;5034498;28;20045;-65
2021/08/03 05:52:00;;;;;;;6.63;5.28;;;;;;;15.52;67.18;100089.38;5033511;28;20050;-65
2021/08/03 05:54:29;;;;;;;7.47;5.45;;;;;;;15.58;67.41;100080.34;5033999;28;20057;-65
2021/08/03 05:56:56;;;;;;;7.03;5.80;;;;;;;15.71;66.61;100078.28;5033765;28;20394;-65
2021/08/03 05:59:23;;;;;;;8.13;6.35;;;;;;;15.86;66.55;100087.13;5033895;28;20463;-65
2021/08/03 06:01:51;;;;;;;5.95;5.15;;;;;;;15.93;66.76;100084.50;5033328;28;20065;-65
2021/08/03 06:04:18;;;;;;;9.00;5.55;;;;;;;16.06;66.27;100076.81;5033697;28;20076;-65
2021/08/03 06:06:49;;;;;;;9.20;5.38;;;;;;;16.16;65.93;100082.72;5033575;28;20053;-65
2021/08/03 06:09:17;;;;;;;6.68;5.07;;;;;;;16.21;65.77;100076.00;5033638;28;20053;-65
2021/08/03 06:11:47;;;;;;;7.55;4.63;;;;;;;16.34;65.64;100074.75;5033059;28;20060;-65
2021/08/03 06:14:19;;;;;;;6.80;5.20;;;;;;;16.51;64.91;100081.97;5033270;28;20053;-65
2021/08/03 06:16:52;;;;;;;7.40;5.15;;;;;;;16.67;64.42;100083.94;5033382;28;20378;-65
2021/08/03 06:19:24;;;;;;;8.73;5.20;;;;;;;16.93;63.90;100084.22;5033491;28;20053;-65
2021/08/03 06:21:56;;;;;;;5.72;4.88;;;;;;;17.16;63.14;100083.50;5033347;28;20073;-65
2021/08/03 06:24:23;;;;;;;6.85;4.50;;;;;;;17.27;62.32;100084.53;5033410;28;20080;-65
2021/08/03 06:26:53;;;;;;;6.25;4.85;;;;;;;17.32;62.53;100081.41;5032557;28;20478;-65
2021/08/03 06:29:23;;;;;;;6.93;4.95;;;;;;;17.45;62.32;100080.09;5033359;28;20053;-65
2021/08/03 06:31:52;;;;;;;10.38;7.28;;;;;;;17.54;62.00;100073.44;5032815;28;20061;-65
2021/08/03 06:34:20;;;;;;;13.10;8.75;;;;;;;17.46;61.79;100075.28;5033240;28;20053;-65
2021/08/03 06:36:47;;;;;;;9.27;6.75;;;;;;;17.64;61.92;100070.81;5032870;28;20053;-65
2021/08/03 06:39:17;;;;;;;8.40;5.35;;;;;;;17.63;61.80;100072.00;5033097;28;20056;-65
2021/08/03 06:41:47;;;;;;;7.55;5.60;;;;;;;17.65;61.65;100066.81;5032519;28;20049;-65
2021/08/03 06:44:21;;;;;;;6.93;5.45;;;;;;;17.61;62.03;100071.56;5032724;28;20072;-65
2021/08/03 06:46:53;;;;;;;6.85;5.13;;;;;;;17.64;62.17;100068.00;5032944;28;20045;-65
2021/08/03 06:49:23;;;;;;;9.10;5.18;;;;;;;17.66;62.79;100067.66;5032762;28;20057;-65
2021/08/03 06:51:55;;;;;;;6.88;5.60;;;;;;;17.67;62.96;100068.47;5032666;28;20053;-65
2021/08/03 06:54:24;;;;;;;5.95;5.28;;;;;;;17.72;62.61;100063.31;5032914;28;20061;-65
2021/08/03 06:56:54;;;;;;;7.82;5.65;;;;;;;17.74;62.82;100069.38;5032359;28;20514;-65
2021/08/03 06:59:27;;;;;;;6.72;5.50;;;;;;;17.78;62.87;100072.28;5032785;28;20053;-65
2021/08/03 07:02:05;;;;;;;8.52;6.35;;;;;;;17.83;62.87;100072.84;5032521;28;20053;-65
2021/08/03 07:04:39;;;;;;;9.13;6.38;;;;;;;17.83;62.97;100069.22;5032722;28;20053;-65
2021/08/03 07:07:08;;;;;;;9.02;6.18;;;;;;;17.81;62.76;100065.91;5032273;28;20414;-65
2021/08/03 07:09:41;;;;;;;8.60;6.20;;;;;;;17.83;62.64;100067.19;5032337;28;20058;-65
2021/08/03 07:12:11;;;;;;;10.93;6.05;;;;;;;17.82;63.00;100062.72;5032316;28;20488;-65
2021/08/03 07:14:40;;;;;;;7.68;6.15;;;;;;;17.83;63.14;100052.31;5032199;28;20057;-65
2021/08/03 07:17:08;;;;;;;;;;;;;;;17.81;63.46;100063.09;5032767;28;20049;-65
2021/08/03 07:19:36;;;;;;;9.15;5.97;;;;;;;17.88;63.29;100065.25;5032525;28;19928;-65
2021/08/03 07:22:04;;;;;;;7.90;6.38;;;;;;;17.96;63.29;100058.56;5031786;28;20058;-65
2021/08/03 07:24:34;;;;;;;6.82;6.13;;;;;;;18.03;63.41;100064.31;5032278;28;20056;-65
2021/08/03 07:27:01;;;;;;;7.68;6.70;;;;;;;18.12;63.15;100056.44;5032324;28;20054;-65
2021/08/03 07:29:29;;;;;;;8.68;6.50;;;;;;;18.24;62.98;100067.50;5032432;28;20060;-65
2021/08/03 07:31:58;;;;;;;8.73;6.00;;;;;;;18.36;62.68;100069.34;5032105;28;20057;-65
2021/08/03 07:34:25;;;;;;;8.20;6.77;;;;;;;18.49;62.43;100077.59;5031823;28;20057;-65
2021/08/03 07:36:53;;;;;;;8.80;7.30;;;;;;;18.48;62.20;100082.44;5032974;28;20480;-65
2021/08/03 07:39:20;;;;;;;9.32;6.75;;;;;;;18.55;61.84;100074.06;5036126;28;20471;-65
2021/08/03 07:41:48;;;;;;;9.27;6.03;;;;;;;18.55;62.06;100076.91;5036366;28;20049;-65
2021/08/03 07:44:16;;;;;;;9.15;6.90;;;;;;;18.55;62.52;100074.06;5036220;28;20340;-65
2021/08/03 07:46:44;;;;;;;8.95;6.55;;;;;;;18.64;61.97;100068.97;5036112;28;20424;-65
2021/08/03 07:49:13;;;;;;;8.80;6.97;;;;;;;18.68;61.87;100069.03;5035468;28;20066;-65
2021/08/03 07:51:40;;;;;;;8.10;5.70;;;;;;;18.73;61.63;100073.53;5036302;28;20049;-65
2021/08/03 07:54:07;;;;;;;8.63;6.63;;;;;;;18.85;61.13;100065.69;5035795;28;20833;-65
2021/08/03 07:56:35;;;;;;;8.07;6.75;;;;;;;18.92;61.37;100065.00;5035757;28;20064;-65
2021/08/03 07:59:02;;;;;;;7.97;6.25;;;;;;;19.03;61.01;100065.94;5035674;28;20398;-65
2021/08/03 08:01:29;;;;;;;10.02;7.15;;;;;;;19.03;61.38;100065.94;5035980;28;20061;-65
2021/08/03 08:03:56;;;;;;;9.63;6.53;;;;;;;19.18;61.14;100066.16;5035979;28;20390;-65
2021/08/03 08:06:25;;;;;;;6.75;5.68;;;;;;;19.29;60.74;100060.63;5035460;28;20482;-65
2021/08/03 08:08:53;;;;;;;8.50;6.05;;;;;;;19.43;60.44;100064.44;5035813;28;20475;-65
2021/08/03 08:11:20;;;;;;;8.27;5.70;;;;;;;19.61;60.07;100061.84;5035381;28;20056;-65
2021/08/03 08:13:47;;;;;;;6.55;5.85;;;;;;;19.79;59.86;100049.97;5035642;28;20049;-65
2021/08/03 08:16:15;;;;;;;9.23;6.43;;;;;;;19.95;58.97;100052.53;5035155;28;20057;-65
2021/08/03 08:18:42;;;;;;;8.23;6.13;;;;;;;20.11;58.66;100060.75;5035597;28;20498;-65
2021/08/03 08:21:09;;;;;;;7.57;6.65;;;;;;;20.25;58.30;100049.59;5035150;28;20049;-65
2021/08/03 08:23:38;;;;;;;8.52;6.82;;;;;;;20.28;58.26;100051.63;5035305;28;20046;-65
2021/08/03 08:26:05;;;;;;;8.90;6.57;;;;;;;20.25;58.43;100058.88;5035174;28;20057;-65
2021/08/03 08:28:33;;;;;;;7.72;6.47;;;;;;;20.25;58.36;100055.25;5035236;28;20052;-66
2021/08/03 08:31:00;;;;;;;8.25;6.43;;;;;;;20.27;58.37;100059.31;5035276;28;20061;-65
2021/08/03 08:33:27;;;;;;;10.77;6.57;;;;;;;20.26;58.04;100051.19;5035320;28;20050;-65
2021/08/03 08:35:55;;;;;;;8.18;6.50;;;;;;;20.35;58.06;100048.88;5035043;28;20049;-65
2021/08/03 08:38:22;;;;;;;8.65;6.38;;;;;;;20.53;57.53;100051.03;5034944;28;20056;-65
2021/08/03 08:40:54;;;;;;;6.82;6.20;;;;;;;20.78;56.80;100042.72;5035378;28;20049;-65
2021/08/03 08:43:21;;;;;;;7.50;6.63;;;;;;;20.99;55.81;100042.84;5035085;28;20482;-65
2021/08/03 08:45:49;;;;;;;8.98;6.35;;;;;;;21.29;55.46;100039.78;5035065;28;20057;-65
2021/08/03 08:48:20;;;;;;;8.05;6.43;;;;;;;21.60;54.16;100036.66;5034367;28;20064;-66
2021/08/03 08:50:48;;;;;;;9.88;7.07;;;;;;;21.91;54.01;100037.97;5035074;28;20053;-66
2021/08/03 08:53:15;;;;;;;8.38;6.35;;;;;;;22.14;53.28;100028.25;5034739;28;20049;-66
2021/08/03 08:55:43;;;;;;;8.90;6.45;;;;;;;22.42;52.29;100024.63;5034910;28;20388;-66
2021/08/03 08:58:11;;;;;;;8.27;6.97;;;;;;;22.56;51.51;100018.94;5034605;28;20064;-66
2021/08/03 09:00:39;;;;;;;9.90;6.55;;;;;;;22.62;51.46;100028.69;5034661;28;20076;-66
2021/08/03 09:03:07;;;;;;;9.30;6.60;;;;;;;22.95;50.65;100023.75;5034551;28;20061;-66
2021/08/03 09:05:37;;;;;;;8.18;6.40;;;;;;;23.42;49.87;100015.88;5034820;28;20049;-66
2021/08/03 09:08:06;;;;;;;7.35;6.10;;;;;;;24.16;47.35;100012.97;5034191;28;20057;-66
2021/08/03 09:10:36;;;;;;;8.20;6.32;;;;;;;25.02;45.25;100017.06;5034346;28;20431;-66
2021/08/03 09:13:05;;;;;;;8.30;5.85;;;;;;;26.13;43.08;100012.72;5034240;28;20056;-66
2021/08/03 09:15:35;;;;;;;;;;;;;;;26.87;40.92;100003.28;5035296;28;20049;-66
2021/08/03 09:18:24;;;;;;;6.65;5.10;;;;;;;27.29;39.91;100006.53;5034327;28;19921;-66
2021/08/03 09:20:52;;;;;;;6.00;5.15;;;;;;;27.66;39.02;100011.03;5034320;28;20057;-66
2021/08/03 09:23:19;;;;;;;7.68;5.53;;;;;;;28.05;38.05;99999.94;5034248;28;20075;-66
2021/08/03 09:25:58;;;;;;;6.35;5.03;;;;;;;28.34;37.49;100006.56;5034527;28;20053;-66
2021/08/03 09:28:26;;;;;;;9.40;6.32;;;;;;;28.67;36.07;100005.75;5034293;28;20058;-66
2021/08/03 09:30:55;;;;;;;6.93;5.50;;;;;;;29.17;36.54;100001.50;5034106;28;20436;-66
2021/08/03 09:33:23;;;;;;;;;;;;;;;29.92;34.81;99999.25;5034408;28;20061;-66
2021/08/03 09:35:51;;;;;;;7.85;4.72;;;;;;;30.39;34.80;99994.84;5033878;28;19921;-66
2021/08/03 09:38:20;;;;;;;6.88;4.93;;;;;;;30.71;32.65;99999.44;5034321;28;20418;-66
2021/08/03 09:40:48;;;;;;;5.50;4.75;;;;;;;31.54;31.69;99990.66;5034086;28;20056;-66
2021/08/03 09:43:17;;;;;;;5.82;5.00;;;;;;;31.60;31.71;99987.97;5033619;28;20060;-66
2021/08/03 09:46:00;;;;;;;6.40;4.90;;;;;;;31.57;30.52;99994.69;5034080;28;20065;-66
2021/08/03 09:48:29;;;;;;;5.68;4.65;;;;;;;31.41;30.84;99984.97;5033685;28;20064;-66
2021/08/03 09:51:05;;;;;;;5.82;5.10;;;;;;;31.35;29.90;99981.91;5033546;28;20057;-66
2021/08/03 09:53:44;;;;;;;5.22;4.68;;;;;;;30.60;30.75;99987.53;5034037;28;20060;-66
2021/08/03 09:56:14;;;;;;;4.85;4.30;;;;;;;31.82;30.25;99982.97;5033512;28;20065;-66
2021/08/03 09:58:53;;;;;;;6.07;4.57;;;;;;;33.33;27.67;99971.47;5033984;28;20069;-66
2021/08/03 10:01:30;;;;;;;6.40;4.22;;;;;;;33.53;28.21;99979.59;5032911;28;20049;-66
2021/08/03 10:03:59;;;;;;;7.68;4.63;;;;;;;32.18;29.45;99964.22;5033515;28;20053;-66
2021/08/03 10:06:30;;;;;;;5.00;4.43;;;;;;;31.61;29.61;99973.13;5040289;28;20079;-67
2021/08/03 10:08:58;;;;;;;5.90;4.25;;;;;;;30.91;30.24;99981.91;5053171;28;20131;-65
2021/08/03 10:11:26;;;;;;;4.60;4.13;;;;;;;30.46;30.69;99983.06;5052774;28;20059;-65
2021/08/03 10:13:55;;;;;;;4.72;3.60;;;;;;;29.54;30.66;99976.22;5053473;28;20056;-67
2021/08/03 10:16:25;;;;;;;5.28;3.67;;;;;;;29.07;31.75;99971.06;5053066;28;20055;-66
2021/08/03 10:18:55;;;;;;;7.13;4.72;;;;;;;28.81;32.46;99964.41;5053557;28;20057;-67
2021/08/03 10:21:31;;;;;;;6.22;5.00;;;;;;;28.43;34.11;99974.44;5053120;28;20053;-65
2021/08/03 10:24:03;;;;;;;6.10;4.50;;;;;;;28.28;34.21;99967.44;5053372;28;20053;-65
2021/08/03 10:26:30;;;;;;;9.30;5.30;;;;;;;27.98;34.33;99968.63;5053139;28;20053;-65
2021/08/03 10:29:23;;;;;;;4.80;4.30;;;;;;;27.59;35.01;99967.47;5052938;28;20057;-65
2021/08/03 10:31:53;;;;;;;5.38;3.42;;;;;;;27.31;34.39;99975.44;5053034;28;20056;-65
2021/08/03 10:34:58;;;;;;;5.60;3.50;;;;;;;26.65;36.12;99968.63;5052743;28;20045;-65
2021/08/03 10:37:26;;;;;;;4.95;3.47;;;;;;;26.00;36.78;99980.34;5052475;28;20057;-65
2021/08/03 10:39:55;;;;;;;5.32;3.33;;;;;;;25.73;36.48;99978.25;5053015;28;20425;-65
2021/08/03 10:42:24;;;;;;;5.45;3.20;;;;;;;25.32;38.25;99970.69;5051795;28;20052;-65
2021/08/03 10:44:53;;;;;;;6.30;3.53;;;;;;;25.19;40.03;99978.97;5053205;28;20048;-67
2021/08/03 10:47:39;;;;;;;;;;;;;;;24.96;39.41;99976.81;5052680;28;20048;-66
2021/08/03 10:50:10;;;;;;;4.85;3.58;;;;;;;24.77;40.86;99981.09;5052465;28;19935;-66
2021/08/03 10:52:52;;;;;;;5.03;3.72;;;;;;;24.35;41.69;99977.44;5052880;28;20060;-66
2021/08/03 10:55:37;;;;;;;5.55;3.70;;;;;;;24.30;41.20;99981.56;5052375;28;20053;-66
2021/08/03 10:58:28;;;;;;;4.93;3.08;;;;;;;23.67;41.20;99972.28;5052423;28;20053;-66
2021/08/03 11:00:57;;;;;;;3.58;2.80;;;;;;;23.60;41.88;99972.31;5052595;28;20056;-66
2021/08/03 11:03:40;;;;;;;;;;;;;;;23.20;41.75;99966.03;5052680;28;20052;-66
2021/08/03 11:06:39;;;;;;;4.13;2.72;;;;;;;22.82;46.33;99980.75;5052596;28;19932;-66
2021/08/03 11:09:32;;;;;;;4.25;2.75;;;;;;;22.29;44.61;99985.31;5049076;28;20053;-66
2021/08/03 11:12:34;;;;;;;3.50;3.00;;;;;;;21.64;47.45;99989.31;5052199;28;20478;-66
2021/08/03 11:15:35;;;;;;;4.53;3.47;;;;;;;21.25;53.93;99989.97;5052391;28;20075;-66
2021/08/03 11:18:05;;;;;;;7.15;3.20;;;;;;;21.22;53.28;99996.44;5052441;28;20390;-66
2021/08/03 11:21:13;;;;;;;6.07;3.33;;;;;;;20.77;50.43;99995.84;5052032;28;20068;-66
2021/08/03 11:24:17;;;;;;;4.40;3.33;;;;;;;20.69;51.54;100003.47;5052886;28;20474;-65
2021/08/03 11:26:52;;;;;;;3.83;2.95;;;;;;;20.57;53.35;99993.25;5049524;28;20048;-65
2021/08/03 11:29:21;;;;;;;5.95;3.40;;;;;;;20.61;54.88;99993.31;5052169;28;20056;-65
2021/08/03 11:31:53;;;;;;;;;;;;;;;20.53;51.65;99994.44;5052673;28;20061;-65
2021/08/03 11:34:31;;;;;;;3.78;3.30;;;;;;;20.42;53.83;99985.88;5052335;28;20273;-65
2021/08/03 11:37:16;;;;;;;3.78;3.38;;;;;;;20.45;56.06;99987.91;5051730;28;20059;-65
2021/08/03 11:39:48;;;;;;;4.80;3.47;;;;;;;20.34;55.86;99981.38;5052216;28;20049;-65
2021/08/03 11:42:21;;;;;;;4.03;3.45;;;;;;;20.27;60.41;99980.09;5051609;28;20351;-65
2021/08/03 11:45:02;;;;;;;6.50;3.78;;;;;;;20.04;59.25;99983.16;5052248;28;20061;-65
2021/08/03 11:47:49;;;;;;;4.60;4.20;;;;;;;20.24;58.70;99982.91;5051858;28;20509;-66